Time;durP1;ratioP1;P1;durP2;ratioP2;P2;SDS_P1;SDS_P2;PMS_P1;PMS_P2;Temp;Humidity;BMP_temperature;BMP_pressure;BME280_temperature;BME280_humidity;BME280_pressure;Samples;Min_cycle;Max_cycle;Signal;HPM_P1;HPM_P2
2021/11/21 00:01:14;;;;;;;13.90;7.03;;;;;;;8.61;81.48;101563.25;5079589;28;20643;-55
2021/11/21 00:03:40;;;;;;;12.52;7.57;;;;;;;8.60;81.36;101557.13;5088170;28;20051;-57
2021/11/21 00:06:06;;;;;;;11.68;7.78;;;;;;;8.63;81.34;101561.47;5087011;28;20478;-57
2021/11/21 00:08:31;;;;;;;12.80;7.00;;;;;;;8.64;80.94;101553.56;5083938;28;20078;-56
2021/11/21 00:10:57;;;;;;;10.63;7.40;;;;;;;8.70;80.80;101556.09;5083481;28;20023;-55
2021/11/21 00:13:23;;;;;;;11.65;8.15;;;;;;;8.65;81.11;101549.19;5081781;28;20053;-53
2021/11/21 00:15:48;;;;;;;12.18;7.75;;;;;;;8.65;80.98;101552.69;5077319;28;20042;-53
2021/11/21 00:18:14;;;;;;;10.18;7.47;;;;;;;8.69;80.94;101545.63;5072555;28;20020;-57
2021/11/21 00:20:40;;;;;;;14.98;7.70;;;;;;;8.66;81.00;101535.16;5075889;28;20020;-57
2021/11/21 00:23:06;;;;;;;11.18;7.05;;;;;;;8.69;80.66;101535.09;5068108;28;20039;-55
2021/11/21 00:25:33;;;;;;;11.82;7.90;;;;;;;8.67;80.44;101535.13;5067000;28;20044;-56
2021/11/21 00:27:58;;;;;;;15.95;7.35;;;;;;;8.67;80.61;101529.03;5085861;28;20028;-56
2021/11/21 00:30:23;;;;;;;15.63;8.65;;;;;;;8.73;80.22;101521.03;5075950;28;20037;-56
2021/11/21 00:32:49;;;;;;;18.15;9.02;;;;;;;8.71;79.91;101521.06;5069229;28;20096;-56
2021/11/21 00:35:14;;;;;;;13.90;7.75;;;;;;;8.66;80.46;101517.63;5070988;28;20036;-56
2021/11/21 00:37:40;;;;;;;11.27;8.45;;;;;;;8.70;80.15;101516.69;5088489;28;20387;-56
2021/11/21 00:40:06;;;;;;;17.02;9.20;;;;;;;8.76;79.82;101515.72;5084750;28;20063;-56
2021/11/21 00:42:31;;;;;;;14.60;8.13;;;;;;;8.72;80.11;101519.28;5071456;28;20028;-54
2021/11/21 00:44:57;;;;;;;16.98;8.77;;;;;;;8.76;79.73;101515.72;5068773;28;20066;-61
2021/11/21 00:47:22;;;;;;;15.70;9.85;;;;;;;8.72;79.63;101511.41;5079846;28;20036;-56
2021/11/21 00:49:48;;;;;;;13.35;7.50;;;;;;;8.77;79.54;101514.84;5079411;28;20162;-56
2021/11/21 00:52:13;;;;;;;11.27;7.57;;;;;;;8.76;79.77;101513.09;5069040;28;20029;-57
2021/11/21 00:57:07;;;;;;;15.57;8.27;;;;;;;8.80;79.15;101511.31;5066255;28;20064;-57
2021/11/21 00:59:32;;;;;;;10.52;7.38;;;;;;;8.83;79.05;101514.75;5066568;28;20490;-57
2021/11/21 01:01:57;;;;;;;13.73;8.18;;;;;;;8.85;79.16;101507.72;5069549;28;20028;-55
2021/11/21 01:04:23;;;;;;;11.27;6.97;;;;;;;8.83;78.89;101504.25;5073512;28;20479;-58
2021/11/21 01:06:48;;;;;;;10.38;7.20;;;;;;;8.84;79.22;101505.09;5066433;28;20035;-56
2021/11/21 01:09:14;;;;;;;10.20;6.80;;;;;;;8.85;79.18;101501.56;5072333;28;20050;-56
2021/11/21 01:11:41;;;;;;;12.68;7.38;;;;;;;8.85;79.02;101499.81;5085339;28;20038;-55
2021/11/21 01:14:07;;;;;;;15.93;7.65;;;;;;;8.88;78.44;101498.03;5076286;28;20020;-59
2021/11/21 01:16:33;;;;;;;9.65;7.43;;;;;;;8.89;78.65;101499.78;5081313;28;20020;-56
2021/11/21 01:18:58;;;;;;;15.27;8.02;;;;;;;8.92;78.94;101494.47;5064942;28;20013;-55
2021/11/21 01:21:23;;;;;;;12.00;8.25;;;;;;;8.90;78.79;101496.25;5087340;28;20245;-54
2021/11/21 01:23:49;;;;;;;18.10;8.00;;;;;;;8.88;79.05;101490.16;5086631;28;20024;-56
2021/11/21 01:26:15;;;;;;;13.90;8.75;;;;;;;8.82;79.23;101484.09;5066841;28;20048;-57
2021/11/21 01:28:40;;;;;;;14.55;8.68;;;;;;;8.80;79.47;101483.28;5066122;28;20444;-63
2021/11/21 01:31:05;;;;;;;11.80;7.38;;;;;;;8.81;79.58;101479.75;5064638;28;20025;-56
2021/11/21 01:33:31;;;;;;;12.85;7.03;;;;;;;8.78;79.82;101478.91;5066155;28;20115;-58
2021/11/21 01:35:56;;;;;;;13.82;6.90;;;;;;;8.75;80.40;101481.59;5065223;28;20024;-56
2021/11/21 01:38:22;;;;;;;13.90;7.00;;;;;;;8.79;79.98;101471.00;5066440;28;20391;-58
2021/11/21 01:40:48;;;;;;;8.57;5.88;;;;;;;8.79;80.06;101473.63;5066301;28;20032;-56
2021/11/21 01:43:14;;;;;;;15.07;8.05;;;;;;;8.76;80.50;101467.59;5065597;28;20119;-57
2021/11/21 01:45:39;;;;;;;13.30;6.65;;;;;;;8.75;80.49;101466.69;5064864;28;20546;-53
2021/11/21 01:48:05;;;;;;;11.38;6.70;;;;;;;8.76;80.55;101468.44;5066435;28;20499;-55
2021/11/21 01:50:37;;;;;;;14.52;8.18;;;;;;;8.72;80.96;101466.75;5065210;28;20025;-54
2021/11/21 01:53:03;;;;;;;15.38;6.65;;;;;;;8.69;81.32;101464.16;5086017;28;20491;-56
2021/11/21 01:55:28;;;;;;;16.67;6.57;;;;;;;8.65;81.89;101462.47;5085123;28;20115;-52
2021/11/21 01:57:55;;;;;;;16.10;7.72;;;;;;;8.69;82.06;101457.16;5069880;28;20021;-55
2021/11/21 02:00:22;;;;;;;9.55;6.50;;;;;;;8.65;82.85;101455.47;5099613;28;20113;-56
2021/11/21 02:02:48;;;;;;;13.88;7.22;;;;;;;8.72;82.41;101453.59;5119878;27;20542;-57
2021/11/21 02:05:13;;;;;;;17.38;8.13;;;;;;;8.68;83.11;101444.06;5085616;28;20056;-56
2021/11/21 02:07:41;;;;;;;16.23;7.47;;;;;;;8.76;83.14;101441.31;5086159;28;20300;-56
2021/11/21 02:10:09;;;;;;;10.80;6.38;;;;;;;8.76;83.21;101439.53;5412025;22;20104;-57
2021/11/21 02:12:34;;;;;;;10.98;6.90;;;;;;;8.76;83.38;101439.53;5045262;28;20036;-53
2021/11/21 02:15:00;;;;;;;15.98;6.82;;;;;;;8.77;83.72;101427.25;5045358;28;20018;-55
2021/11/21 02:17:27;;;;;;;11.50;5.78;;;;;;;8.78;84.05;101424.59;5044068;28;20028;-54
2021/11/21 02:19:53;;;;;;;14.52;6.97;;;;;;;8.88;84.40;101427.94;5045396;28;20484;-57
2021/11/21 02:22:19;;;;;;;18.98;8.40;;;;;;;8.87;84.31;101420.06;5045537;28;20044;-57
2021/11/21 02:24:44;;;;;;;18.88;7.05;;;;;;;8.93;84.52;101427.84;5045878;28;20096;-55
2021/11/21 02:27:09;;;;;;;12.15;5.45;;;;;;;9.00;84.23;101429.47;5043888;28;20490;-55
2021/11/21 02:29:34;;;;;;;10.40;5.25;;;;;;;9.04;84.06;101417.16;5044372;28;20410;-55
2021/11/21 02:32:00;;;;;;;15.98;7.50;;;;;;;9.06;84.16;101424.13;5035779;28;20678;-55
2021/11/21 02:34:25;;;;;;;12.75;6.55;;;;;;;9.08;84.27;101411.81;5046396;28;20360;-55
2021/11/21 02:36:51;;;;;;;11.80;5.50;;;;;;;9.18;84.04;101409.03;5045304;28;20054;-52
2021/11/21 02:39:17;;;;;;;9.00;6.20;;;;;;;9.21;84.22;101403.69;5046053;28;20029;-56
2021/11/21 02:41:42;;;;;;;15.75;7.07;;;;;;;9.20;83.99;101405.47;5044974;28;20279;-55
2021/11/21 02:44:07;;;;;;;11.93;6.03;;;;;;;9.20;84.15;101389.69;5029587;28;20029;-60
2021/11/21 02:46:34;;;;;;;12.27;6.28;;;;;;;9.23;84.35;101394.03;5025174;28;20034;-56
2021/11/21 02:49:00;;;;;;;12.45;6.72;;;;;;;9.20;84.36;101388.81;5036523;28;20032;-56
2021/11/21 02:51:25;;;;;;;14.93;8.93;;;;;;;9.15;84.66;101383.63;5045539;28;20043;-55
2021/11/21 02:53:51;;;;;;;11.00;6.93;;;;;;;9.17;84.65;101378.34;5046139;28;20147;-58
2021/11/21 02:56:17;;;;;;;16.42;7.22;;;;;;;9.18;85.00;101370.44;5046484;28;20502;-56
2021/11/21 02:58:44;;;;;;;11.02;7.40;;;;;;;9.19;84.72;101369.56;5045759;28;20037;-54
2021/11/21 03:01:29;;;;;;;12.30;8.10;;;;;;;9.18;84.86;101370.44;5045334;28;20108;-57
2021/11/21 03:03:54;;;;;;;12.55;7.22;;;;;;;9.15;84.80;101361.75;5045385;28;20479;-55
2021/11/21 03:06:22;;;;;;;12.07;7.57;;;;;;;9.10;85.29;101369.72;5045967;28;20041;-59
2021/11/21 03:08:48;;;;;;;16.73;9.80;;;;;;;9.16;84.97;101371.38;5048044;28;20057;-55
2021/11/21 03:11:26;;;;;;;15.15;7.95;;;;;;;9.21;85.15;101364.25;5048536;28;20091;-58
2021/11/21 03:13:52;;;;;;;9.73;6.07;;;;;;;9.19;85.32;101366.94;5047674;28;20056;-56
2021/11/21 03:16:18;;;;;;;12.82;7.35;;;;;;;9.22;84.97;101360.75;5049859;28;20065;-55
2021/11/21 03:18:43;;;;;;;11.32;7.65;;;;;;;9.21;85.09;101353.72;5048682;28;20037;-57
2021/11/21 03:21:08;;;;;;;9.50;6.82;;;;;;;9.25;84.93;101354.53;5049311;28;20029;-58
2021/11/21 03:23:34;;;;;;;15.20;7.13;;;;;;;9.24;84.39;101356.28;5048198;28;20171;-57
2021/11/21 03:25:59;;;;;;;11.93;6.05;;;;;;;9.27;84.64;101350.13;5048786;28;20029;-56
2021/11/21 03:28:24;;;;;;;7.82;4.85;;;;;;;9.22;84.49;101353.69;5048543;28;20075;-54
2021/11/21 03:30:50;;;;;;;7.60;4.57;;;;;;;9.20;84.72;101352.00;5049225;28;20104;-58
2021/11/21 03:33:15;;;;;;;17.23;4.28;;;;;;;9.20;84.59;101352.00;5048189;28;20025;-55
2021/11/21 03:35:41;;;;;;;11.52;3.67;;;;;;;9.22;84.64;101355.47;5045708;28;20134;-55
2021/11/21 03:38:06;;;;;;;7.40;3.20;;;;;;;9.16;84.83;101355.59;5048184;28;20092;-54
2021/11/21 03:40:32;;;;;;;5.55;2.67;;;;;;;9.13;84.79;101355.66;5048064;28;20028;-54
2021/11/21 03:42:58;;;;;;;6.00;2.83;;;;;;;9.17;84.36;101363.47;5048528;28;20514;-59
2021/11/21 03:45:23;;;;;;;6.53;2.95;;;;;;;9.17;84.41;101357.31;5047799;28;20029;-56
2021/11/21 03:47:49;;;;;;;10.77;2.78;;;;;;;9.16;84.07;101355.59;5050004;28;20070;-57
2021/11/21 03:50:17;;;;;;;7.07;2.20;;;;;;;9.07;84.27;101364.53;5047184;28;20329;-55
2021/11/21 03:52:44;;;;;;;3.63;1.67;;;;;;;9.08;83.52;101358.38;5049645;28;20048;-56
2021/11/21 03:55:11;;;;;;;3.15;1.20;;;;;;;9.09;82.89;101354.84;5047181;28;20054;-60
2021/11/21 03:57:37;;;;;;;4.05;1.02;;;;;;;9.06;82.81;101360.19;5047443;28;20030;-58
2021/11/21 04:00:05;;;;;;;11.93;1.70;;;;;;;8.95;83.10;101369.13;5029938;28;20142;-60
2021/11/21 04:02:31;;;;;;;8.98;1.63;;;;;;;8.92;83.16;101371.81;5048895;28;20025;-59
2021/11/21 04:04:56;;;;;;;4.00;1.17;;;;;;;8.86;83.67;101364.03;5046007;28;20040;-59
2021/11/21 04:07:22;;;;;;;3.83;1.10;;;;;;;8.85;83.52;101371.03;5047841;28;20122;-61
2021/11/21 04:09:47;;;;;;;6.78;1.10;;;;;;;8.86;83.51;101371.94;5047053;28;20226;-57
2021/11/21 04:12:12;;;;;;;3.80;0.80;;;;;;;8.78;83.65;101363.28;5047523;28;20390;-59
2021/11/21 04:14:38;;;;;;;4.72;1.00;;;;;;;8.72;83.85;101351.13;5047267;28;20017;-57
2021/11/21 04:17:03;;;;;;;5.18;1.00;;;;;;;8.71;84.32;101365.19;5046145;28;20410;-57
2021/11/21 04:19:29;;;;;;;7.50;1.75;;;;;;;8.66;84.53;101362.63;5046921;28;20164;-57
2021/11/21 04:21:54;;;;;;;3.55;0.80;;;;;;;8.66;84.80;101367.88;5046824;28;20025;-57
2021/11/21 04:24:20;;;;;;;4.45;0.90;;;;;;;8.68;84.67;101359.97;5048390;28;20529;-57
2021/11/21 04:26:46;;;;;;;5.63;0.75;;;;;;;8.68;84.51;101366.09;5046251;28;20036;-58
2021/11/21 04:29:12;;;;;;;6.15;1.20;;;;;;;8.68;84.56;101365.22;5047477;28;20042;-57
2021/11/21 04:31:37;;;;;;;8.25;1.33;;;;;;;8.67;84.47;101360.88;5047681;28;20459;-57
2021/11/21 04:34:03;;;;;;;10.25;1.30;;;;;;;8.61;84.85;101363.59;5047751;28;20037;-57
2021/11/21 04:36:28;;;;;;;9.88;1.65;;;;;;;8.68;84.63;101365.22;5046120;28;20021;-60
2021/11/21 04:38:53;;;;;;;8.85;1.20;;;;;;;8.68;84.68;101366.09;5047344;28;20040;-57
2021/11/21 04:41:19;;;;;;;12.65;1.20;;;;;;;8.71;84.33;101373.94;5046125;28;20231;-56
2021/11/21 04:43:44;;;;;;;9.10;1.10;;;;;;;8.73;84.43;101368.63;5047309;28;20021;-58
2021/11/21 04:46:09;;;;;;;8.18;1.13;;;;;;;8.79;83.00;101372.94;5046697;28;20121;-58
2021/11/21 04:48:35;;;;;;;7.00;1.50;;;;;;;8.78;81.34;101366.81;5046776;28;20124;-59
2021/11/21 04:51:00;;;;;;;10.05;1.52;;;;;;;8.82;80.92;101357.97;5046903;28;20032;-55
2021/11/21 04:53:26;;;;;;;6.20;1.17;;;;;;;8.79;81.24;101359.78;5046527;28;20426;-57
2021/11/21 04:55:52;;;;;;;5.70;1.00;;;;;;;8.71;81.22;101360.81;5046465;28;20043;-59
2021/11/21 04:58:17;;;;;;;4.57;0.90;;;;;;;8.63;80.69;101365.31;5046228;28;20013;-59
2021/11/21 05:00:43;;;;;;;9.68;1.23;;;;;;;8.65;80.50;101358.28;5045930;28;20041;-56
2021/11/21 05:03:08;;;;;;;5.47;1.13;;;;;;;8.60;80.44;101365.34;5031829;28;20013;-59
2021/11/21 05:05:34;;;;;;;3.38;0.70;;;;;;;8.54;81.09;101358.47;5027806;28;20075;-59
2021/11/21 05:07:59;;;;;;;16.80;1.45;;;;;;;8.51;80.85;101358.47;5055948;28;20033;-60
2021/11/21 05:10:25;;;;;;;12.60;1.30;;;;;;;8.52;81.01;101357.56;5047096;28;20116;-57
2021/11/21 05:12:51;;;;;;;6.30;1.00;;;;;;;8.51;80.79;101357.59;5047085;28;20039;-56
2021/11/21 05:15:19;;;;;;;7.68;1.38;;;;;;;8.48;80.49;101358.53;5047420;28;20468;-62
2021/11/21 05:17:46;;;;;;;4.47;0.98;;;;;;;8.46;80.17;101352.44;5046176;28;20025;-59
2021/11/21 05:20:12;;;;;;;7.82;1.20;;;;;;;8.46;79.91;101355.91;5045707;28;20801;-58
2021/11/21 05:22:37;;;;;;;7.15;1.30;;;;;;;8.41;79.80;101357.78;5046079;28;20396;-56
2021/11/21 05:25:03;;;;;;;6.55;0.70;;;;;;;8.40;79.61;101356.00;5045582;28;20108;-58
2021/11/21 05:27:28;;;;;;;5.97;1.00;;;;;;;8.32;80.05;101356.16;5045609;28;20025;-60
2021/11/21 05:29:54;;;;;;;8.55;1.60;;;;;;;8.32;79.93;101361.41;5045626;28;20368;-59
2021/11/21 05:32:20;;;;;;;6.72;1.08;;;;;;;8.24;80.09;101359.81;5046352;28;20021;-57
2021/11/21 05:34:46;;;;;;;4.65;0.90;;;;;;;8.22;80.30;101372.97;5044747;28;20468;-57
2021/11/21 05:37:12;;;;;;;9.52;0.93;;;;;;;8.23;79.95;101364.19;5026218;28;20037;-57
2021/11/21 05:39:37;;;;;;;7.97;1.10;;;;;;;8.19;80.01;101371.22;5041120;28;20071;-56
2021/11/21 05:42:03;;;;;;;9.88;0.98;;;;;;;8.14;80.21;101361.69;5045881;28;20025;-56
2021/11/21 05:44:28;;;;;;;6.05;0.88;;;;;;;8.18;80.20;101361.63;5045220;28;20115;-56
2021/11/21 05:46:54;;;;;;;12.60;1.35;;;;;;;8.09;80.10;101362.63;5046614;28;20028;-57
2021/11/21 05:49:19;;;;;;;7.25;1.25;;;;;;;8.09;79.99;101352.13;5045869;28;20151;-57
2021/11/21 05:51:44;;;;;;;7.40;1.10;;;;;;;8.09;79.81;101356.50;5045205;28;20028;-58
2021/11/21 05:54:10;;;;;;;12.80;1.65;;;;;;;8.08;79.86;101353.03;5040085;28;20040;-58
2021/11/21 05:56:35;;;;;;;10.52;1.50;;;;;;;8.04;79.89;101348.69;5046083;28;20025;-57
2021/11/21 05:59:01;;;;;;;9.60;1.17;;;;;;;8.00;79.71;101347.00;5045417;28;20029;-58
2021/11/21 06:01:26;;;;;;;5.15;1.00;;;;;;;8.07;79.14;101353.06;5046375;28;20088;-57
2021/11/21 06:03:53;;;;;;;11.23;1.48;;;;;;;8.08;78.43;101345.16;5046558;28;20056;-61
2021/11/21 06:06:18;;;;;;;10.02;1.35;;;;;;;8.08;78.35;101350.41;5047160;28;20136;-58
2021/11/21 06:08:44;;;;;;;13.13;1.50;;;;;;;8.06;78.11;101346.94;5046096;28;20051;-57
2021/11/21 06:11:09;;;;;;;8.10;1.25;;;;;;;8.07;77.91;101351.28;5044287;28;20471;-57
2021/11/21 06:13:35;;;;;;;12.93;1.40;;;;;;;8.05;77.76;101350.44;5046677;28;20102;-55
2021/11/21 06:16:00;;;;;;;6.50;1.20;;;;;;;8.05;77.15;101342.59;5042410;28;20037;-58
2021/11/21 06:18:25;;;;;;;9.48;1.85;;;;;;;8.01;76.78;101343.50;5045246;28;20021;-56
2021/11/21 06:20:51;;;;;;;7.93;1.40;;;;;;;7.95;77.18;101348.84;5043582;28;20378;-55
2021/11/21 06:23:16;;;;;;;9.13;1.90;;;;;;;7.93;77.00;101341.00;5045919;28;20457;-63
2021/11/21 06:25:42;;;;;;;10.05;1.63;;;;;;;7.84;77.31;101346.38;5044102;28;20086;-58
2021/11/21 06:28:08;;;;;;;9.25;1.50;;;;;;;7.84;77.41;101354.25;5044088;28;20475;-60
2021/11/21 06:30:33;;;;;;;12.57;1.20;;;;;;;7.77;77.68;101350.81;5044317;28;20079;-58
2021/11/21 06:32:59;;;;;;;14.10;1.50;;;;;;;7.87;77.04;101345.47;5045809;28;20025;-58
2021/11/21 06:35:24;;;;;;;11.15;1.48;;;;;;;7.89;76.81;101343.69;5045794;28;20104;-56
2021/11/21 06:37:50;;;;;;;6.45;1.30;;;;;;;7.90;76.26;101348.91;5027157;28;20120;-59
2021/11/21 06:40:15;;;;;;;10.45;1.60;;;;;;;7.93;76.11;101355.88;5040351;28;20116;-58
2021/11/21 06:42:42;;;;;;;10.25;1.42;;;;;;;7.95;75.82;101362.81;5042986;28;20285;-56
2021/11/21 06:45:09;;;;;;;15.48;2.03;;;;;;;7.97;75.10;101375.94;5049860;28;20029;-59
2021/11/21 06:47:34;;;;;;;16.08;2.20;;;;;;;7.99;74.11;101376.78;5042316;28;20124;-56
2021/11/21 06:50:01;;;;;;;13.23;1.40;;;;;;;7.92;74.85;101377.75;5049434;28;20123;-60
2021/11/21 06:52:29;;;;;;;12.88;2.08;;;;;;;7.88;75.29;101383.91;5048800;28;20394;-58
2021/11/21 06:54:54;;;;;;;7.70;1.30;;;;;;;7.73;76.12;101362.25;5049845;28;20021;-57
2021/11/21 06:57:21;;;;;;;7.53;1.02;;;;;;;7.69;75.98;101357.94;5049348;28;20465;-58
2021/11/21 06:59:46;;;;;;;8.57;1.35;;;;;;;7.58;75.45;101365.94;5050683;28;20036;-57
2021/11/21 07:02:11;;;;;;;7.20;1.25;;;;;;;7.55;75.79;101366.00;5049577;28;20033;-57
2021/11/21 07:04:37;;;;;;;8.73;1.52;;;;;;;7.57;75.00;101369.47;5049571;28;20021;-57
2021/11/21 07:07:07;;;;;;;8.88;1.60;;;;;;;7.59;74.86;101372.94;5049419;28;20087;-58
2021/11/21 07:09:33;;;;;;;9.00;1.95;;;;;;;7.55;74.56;101379.97;5047744;28;20676;-59
2021/11/21 07:11:58;;;;;;;8.98;1.55;;;;;;;7.56;74.15;101379.09;5049127;28;20040;-56
2021/11/21 07:14:24;;;;;;;5.65;1.40;;;;;;;7.61;74.01;101381.66;5049399;28;20118;-58
2021/11/21 07:16:49;;;;;;;8.07;1.35;;;;;;;7.61;73.37;101381.66;5049965;28;20075;-60
2021/11/21 07:19:14;;;;;;;10.20;1.90;;;;;;;7.64;73.33;101388.59;5049292;28;20068;-58
2021/11/21 07:21:40;;;;;;;11.80;2.20;;;;;;;7.61;73.66;101397.38;5049693;28;20092;-58
2021/11/21 07:24:06;;;;;;;7.72;1.95;;;;;;;7.50;74.08;101388.78;5048655;28;20036;-56
2021/11/21 07:26:31;;;;;;;11.05;1.20;;;;;;;7.45;74.14;101394.09;5048574;28;20062;-55
2021/11/21 07:28:56;;;;;;;15.32;2.15;;;;;;;7.42;73.82;101394.13;5049518;28;20029;-57
2021/11/21 07:31:22;;;;;;;12.07;2.15;;;;;;;7.33;74.49;101393.34;5049194;28;20025;-58
2021/11/21 07:33:47;;;;;;;5.80;1.38;;;;;;;7.28;74.84;101394.28;5049547;28;20071;-57
2021/11/21 07:36:12;;;;;;;12.10;2.28;;;;;;;7.22;74.81;101389.97;5049119;28;20021;-57
2021/11/21 07:38:39;;;;;;;12.75;2.75;;;;;;;7.21;74.80;101396.09;5049843;28;20037;-58
2021/11/21 07:41:05;;;;;;;15.73;2.00;;;;;;;7.19;74.60;101405.72;5049390;28;20460;-55
2021/11/21 07:43:30;;;;;;;10.90;1.58;;;;;;;7.12;74.57;101409.28;5050308;28;20035;-54
2021/11/21 07:45:58;;;;;;;6.40;1.27;;;;;;;7.08;74.65;101403.25;5050028;28;20021;-58
2021/11/21 07:48:23;;;;;;;8.32;1.77;;;;;;;7.08;74.26;101398.00;5050515;28;20036;-59
2021/11/21 07:50:49;;;;;;;7.30;1.40;;;;;;;6.97;74.52;101412.94;5050986;28;20262;-58
2021/11/21 07:53:15;;;;;;;9.75;1.33;;;;;;;6.88;74.70;101413.91;5050321;28;20602;-57
2021/11/21 07:55:40;;;;;;;9.15;1.55;;;;;;;6.80;74.46;101406.09;5051302;28;20489;-56
2021/11/21 07:58:05;;;;;;;7.90;1.50;;;;;;;6.75;74.37;101411.41;5051499;28;20029;-59
2021/11/21 08:00:31;;;;;;;7.28;1.13;;;;;;;6.70;74.83;101406.19;5049382;28;20025;-58
2021/11/21 08:02:57;;;;;;;10.00;1.55;;;;;;;6.72;74.55;101414.06;5048965;28;20029;-57
2021/11/21 08:05:23;;;;;;;9.38;1.52;;;;;;;6.79;74.27;101417.47;5048792;28;20533;-58
2021/11/21 08:07:48;;;;;;;13.70;1.65;;;;;;;6.85;73.63;101416.53;5049303;28;20109;-58
2021/11/21 08:10:14;;;;;;;7.70;1.25;;;;;;;6.88;73.66;101421.75;5047326;28;20041;-58
2021/11/21 08:12:39;;;;;;;7.65;1.55;;;;;;;6.79;74.57;101423.59;5048791;28;20120;-59
2021/11/21 08:15:05;;;;;;;9.00;1.15;;;;;;;6.77;74.58;101430.56;5048493;28;20348;-59
2021/11/21 08:17:30;;;;;;;7.32;1.48;;;;;;;6.77;74.66;101440.22;5048091;28;20368;-57
2021/11/21 08:19:56;;;;;;;10.52;1.13;;;;;;;6.77;74.75;101440.22;5048507;28;20031;-55
2021/11/21 08:22:21;;;;;;;8.90;1.20;;;;;;;6.80;74.88;101433.16;5047898;28;20047;-57
2021/11/21 08:24:46;;;;;;;3.58;0.70;;;;;;;6.77;75.13;101440.22;5048551;28;20025;-56
2021/11/21 08:27:13;;;;;;;7.05;1.65;;;;;;;6.82;75.23;101441.03;5047740;28;20029;-58
2021/11/21 08:29:39;;;;;;;10.10;1.88;;;;;;;6.79;75.20;101438.44;5048595;28;20035;-58
2021/11/21 08:32:05;;;;;;;2.65;1.13;;;;;;;6.67;75.49;101448.13;5047961;28;20115;-56
2021/11/21 08:34:31;;;;;;;5.93;0.98;;;;;;;6.65;75.63;101441.19;5048194;28;20390;-56
2021/11/21 08:36:56;;;;;;;5.20;0.75;;;;;;;6.57;75.92;101438.59;5047082;28;20306;-56
2021/11/21 08:39:22;;;;;;;6.15;1.20;;;;;;;6.53;76.09;101432.50;5048005;28;20525;-56
2021/11/21 08:41:51;;;;;;;2.88;0.80;;;;;;;6.49;76.39;101436.03;5046786;28;20036;-55
2021/11/21 08:44:16;;;;;;;3.63;0.82;;;;;;;6.45;76.70;101444.81;5048466;28;20479;-55
2021/11/21 08:46:41;;;;;;;6.60;1.02;;;;;;;6.46;76.70;101436.06;5046787;28;20040;-56
2021/11/21 08:49:07;;;;;;;5.25;0.80;;;;;;;6.45;76.83;101435.19;5047055;28;20021;-60
2021/11/21 08:51:32;;;;;;;6.28;1.23;;;;;;;6.44;76.98;101429.94;5047177;28;20031;-56
2021/11/21 08:53:57;;;;;;;10.90;1.15;;;;;;;6.42;77.13;101437.81;5047382;28;20048;-56
2021/11/21 08:56:23;;;;;;;3.78;1.00;;;;;;;6.41;77.36;101443.09;5044817;28;20033;-55
2021/11/21 08:58:49;;;;;;;3.00;1.35;;;;;;;6.43;77.28;101433.47;5046129;28;20211;-54
2021/11/21 09:01:14;;;;;;;10.07;1.75;;;;;;;6.43;77.14;101433.47;5028943;28;20020;-55
2021/11/21 09:03:40;;;;;;;7.25;1.40;;;;;;;6.41;77.38;101433.47;5045682;28;20037;-55
2021/11/21 09:06:05;;;;;;;3.53;1.30;;;;;;;6.36;78.61;101435.25;5045955;28;20017;-56
2021/11/21 09:08:31;;;;;;;9.00;1.38;;;;;;;6.36;78.48;101444.84;5045491;28;20073;-56
2021/11/21 09:10:56;;;;;;;12.18;2.00;;;;;;;6.35;78.55;101446.59;5045532;28;20049;-58
2021/11/21 09:13:22;;;;;;;8.90;1.95;;;;;;;6.49;76.96;101443.88;5046844;28;20021;-56
2021/11/21 09:15:48;;;;;;;8.85;1.17;;;;;;;6.61;75.99;101444.66;5047563;28;20029;-58
2021/11/21 09:18:14;;;;;;;16.02;2.38;;;;;;;6.80;74.43;101441.03;5046333;28;20025;-58
2021/11/21 09:20:39;;;;;;;13.05;1.92;;;;;;;6.93;73.44;101444.41;5046667;28;20036;-57
2021/11/21 09:23:10;;;;;;;14.90;2.00;;;;;;;7.05;73.29;101439.94;5046867;28;20029;-56
2021/11/21 09:25:35;;;;;;;8.25;2.30;;;;;;;7.12;73.06;101440.75;5046154;28;20025;-55
2021/11/21 09:28:01;;;;;;;8.25;1.70;;;;;;;7.20;72.98;101444.19;5047096;28;20595;-56
2021/11/21 09:30:27;;;;;;;7.30;1.30;;;;;;;7.27;72.57;101437.09;5047502;28;20034;-54
2021/11/21 09:32:53;;;;;;;17.50;2.05;;;;;;;7.40;72.35;101443.06;5039925;28;20028;-57
2021/11/21 09:35:19;;;;;;;9.20;1.92;;;;;;;7.57;71.97;101449.03;5047646;28;20388;-55
2021/11/21 09:37:45;;;;;;;11.35;2.10;;;;;;;7.72;70.74;101447.09;5047439;28;20033;-54
2021/11/21 09:40:12;;;;;;;9.00;1.88;;;;;;;7.75;70.49;101447.06;5046026;28;20884;-54
2021/11/21 09:42:38;;;;;;;9.80;1.90;;;;;;;7.81;70.23;101456.63;5047567;28;20059;-58
2021/11/21 09:45:05;;;;;;;11.27;1.77;;;;;;;7.91;69.18;101454.72;5047013;28;20040;-55
2021/11/21 09:47:31;;;;;;;7.68;1.30;;;;;;;7.93;69.25;101448.59;5046671;28;20028;-56
2021/11/21 09:50:14;;;;;;;8.15;1.45;;;;;;;8.15;68.65;101452.66;5046359;28;20025;-58
2021/11/21 09:52:39;;;;;;;7.35;1.17;;;;;;;8.26;69.01;101452.53;5047226;28;20025;-54
2021/11/21 09:55:06;;;;;;;14.15;2.33;;;;;;;8.23;69.39;101456.06;5045880;28;20402;-57
2021/11/21 09:57:32;;;;;;;8.25;1.42;;;;;;;8.25;68.62;101448.16;5046977;28;20395;-55
2021/11/21 10:00:00;;;;;;;10.57;1.70;;;;;;;8.39;68.31;101446.19;5046587;28;20100;-53
2021/11/21 10:02:38;;;;;;;12.27;1.52;;;;;;;8.50;67.80;101446.06;5039796;28;20039;-55
2021/11/21 10:05:25;;;;;;;10.30;1.60;;;;;;;8.62;67.62;101444.13;5041405;28;20021;-54
2021/11/21 10:08:03;;;;;;;10.15;1.75;;;;;;;8.70;67.73;101442.28;5047234;28;20025;-55
2021/11/21 10:10:35;;;;;;;11.32;2.33;;;;;;;8.67;68.44;101447.59;5044813;28;20045;-57
2021/11/21 10:13:00;;;;;;;12.55;1.52;;;;;;;8.71;67.31;101452.75;5046258;28;20074;-55
2021/11/21 10:15:37;;;;;;;4.07;1.50;;;;;;;8.79;67.04;101451.75;5046356;28;20465;-54
2021/11/21 10:18:03;;;;;;;7.13;1.55;;;;;;;8.81;67.42;101448.22;5044488;28;20040;-55
2021/11/21 10:20:29;;;;;;;5.70;1.30;;;;;;;8.84;67.53;101445.53;5046478;28;20098;-52
2021/11/21 10:23:06;;;;;;;8.55;1.35;;;;;;;8.93;67.47;101444.50;5039178;28;20025;-55
2021/11/21 10:25:32;;;;;;;7.38;1.52;;;;;;;8.97;67.43;101450.56;5045187;28;20009;-54
2021/11/21 10:28:21;;;;;;;8.68;1.40;;;;;;;9.04;65.72;101449.59;5045331;28;20569;-57
2021/11/21 10:31:06;;;;;;;5.30;1.23;;;;;;;9.09;65.67;101445.09;5035014;28;20062;-54
2021/11/21 10:33:35;;;;;;;11.40;2.05;;;;;;;9.18;65.35;101451.09;5045790;28;20033;-54
2021/11/21 10:36:02;;;;;;;8.23;1.33;;;;;;;9.22;64.17;101453.63;5045924;28;20028;-57
2021/11/21 10:38:36;;;;;;;12.35;1.98;;;;;;;9.36;63.98;101447.22;5046676;28;20078;-57
2021/11/21 10:41:09;;;;;;;8.98;1.45;;;;;;;9.53;63.70;101446.91;5043354;28;20684;-56
2021/11/21 10:43:42;;;;;;;5.35;1.30;;;;;;;9.82;63.73;101473.56;5039503;28;20542;-54
2021/11/21 10:46:22;;;;;;;11.82;1.45;;;;;;;9.37;63.88;101459.50;5017275;28;20021;-56
2021/11/21 10:48:47;;;;;;;8.35;1.50;;;;;;;9.13;66.76;101456.44;5019852;28;20352;-54
2021/11/21 10:51:21;;;;;;;4.25;1.15;;;;;;;8.86;68.20;101453.41;5018680;28;20460;-54
2021/11/21 10:53:46;;;;;;;6.80;1.50;;;;;;;8.72;68.32;101445.72;5030277;28;20094;-55
2021/11/21 10:56:12;;;;;;;5.75;1.02;;;;;;;8.50;67.87;101446.06;5039229;28;20033;-55
2021/11/21 10:58:47;;;;;;;7.03;1.25;;;;;;;8.48;67.33;101442.56;5036423;28;20360;-54
2021/11/21 11:01:20;;;;;;;12.80;1.60;;;;;;;8.50;67.70;101447.78;5035695;28;20025;-54
2021/11/21 11:04:10;;;;;;;7.03;1.00;;;;;;;8.40;67.65;101441.84;5035489;28;20021;-54
2021/11/21 11:06:36;;;;;;;8.40;1.58;;;;;;;8.39;68.38;101450.56;5027514;28;20052;-54
2021/11/21 11:09:15;;;;;;;3.95;1.20;;;;;;;8.47;68.71;101451.34;5035651;28;20496;-56
2021/11/21 11:11:40;;;;;;;6.20;1.40;;;;;;;8.65;68.27;101457.22;5033644;28;20037;-54
2021/11/21 11:14:06;;;;;;;10.43;2.03;;;;;;;8.94;67.62;101453.28;5033208;28;20083;-54
2021/11/21 11:16:31;;;;;;;10.82;2.28;;;;;;;9.40;67.25;101455.94;5035852;28;20076;-51
2021/11/21 11:18:57;;;;;;;7.15;1.80;;;;;;;9.66;65.36;101454.59;5030328;28;20017;-57
2021/11/21 11:21:22;;;;;;;5.63;1.17;;;;;;;9.75;65.19;101459.63;5025342;28;20107;-53
2021/11/21 11:23:47;;;;;;;8.93;1.70;;;;;;;9.97;63.90;101444.25;5030142;28;20170;-60
2021/11/21 11:26:14;;;;;;;9.77;1.40;;;;;;;10.04;63.25;101434.47;5043856;28;20029;-53
2021/11/21 11:28:47;;;;;;;11.55;1.58;;;;;;;9.94;63.01;101436.41;5045548;28;20367;-55